Time;durP1;ratioP1;P1;durP2;ratioP2;P2;SDS_P1;SDS_P2;PMS_P1;PMS_P2;Temp;Humidity;BMP_temperature;BMP_pressure;BME280_temperature;BME280_humidity;BME280_pressure;Samples;Min_cycle;Max_cycle;Signal;HPM_P1;HPM_P2
2021/05/10 00:00:57;;;;;;;4.05;2.67;;;;;;;4.50;65.90;100991.38;1754364;82;21214;-80
2021/05/10 00:04:03;;;;;;;4.72;3.00;;;;;;;4.48;65.92;100987.94;1754200;82;21202;-80
2021/05/10 00:07:09;;;;;;;9.38;4.65;;;;;;;4.46;65.92;100993.45;1754280;82;21277;-80
2021/05/10 00:10:17;;;;;;;8.33;3.20;;;;;;;4.47;65.86;100991.61;1752990;82;21285;-80
2021/05/10 00:13:24;;;;;;;4.58;2.90;;;;;;;4.46;65.86;100995.30;1754344;82;21202;-80
2021/05/10 00:16:32;;;;;;;7.08;3.10;;;;;;;4.43;65.92;100995.07;1754313;82;21309;-80
2021/05/10 00:19:40;;;;;;;5.90;3.25;;;;;;;4.40;66.05;100987.66;1752798;81;21218;-80
2021/05/10 00:22:46;;;;;;;3.98;2.98;;;;;;;4.39;66.29;100990.88;1754232;82;21305;-80
2021/05/10 00:25:51;;;;;;;6.00;3.05;;;;;;;4.38;66.39;100986.94;1754369;82;21921;-80
2021/05/10 00:28:56;;;;;;;7.70;3.75;;;;;;;4.39;66.42;100991.37;1754168;82;21328;-80
2021/05/10 00:32:03;;;;;;;5.50;3.22;;;;;;;4.38;66.47;100989.65;1754269;82;21277;-80
2021/05/10 00:35:09;;;;;;;7.03;3.70;;;;;;;4.38;66.50;100993.22;1754396;82;21355;-80
2021/05/10 00:38:15;;;;;;;4.60;2.95;;;;;;;4.38;66.58;100992.36;1753732;82;21740;-80
2021/05/10 00:41:21;;;;;;;3.83;2.98;;;;;;;4.36;66.67;100987.03;1753450;80;21202;-80
2021/05/10 00:44:26;;;;;;;4.70;2.77;;;;;;;4.35;66.63;100992.95;1749248;82;21289;-80
2021/05/10 00:47:30;;;;;;;8.90;3.15;;;;;;;4.35;66.55;100997.51;1749118;82;21305;-80
2021/05/10 00:50:36;;;;;;;6.10;3.10;;;;;;;4.30;66.54;100995.16;1749307;82;21222;-80
2021/05/10 00:53:42;;;;;;;7.15;3.42;;;;;;;4.28;66.57;100993.53;1749250;82;21206;-80
2021/05/10 00:56:49;;;;;;;5.12;3.45;;;;;;;4.22;66.65;100986.75;1749297;82;21807;-80
2021/05/10 00:59:56;;;;;;;5.35;2.77;;;;;;;4.18;66.82;100992.03;1749362;82;21688;-80
2021/05/10 01:03:00;;;;;;;5.53;3.30;;;;;;;4.14;66.98;100991.03;1749391;82;21751;-80
2021/05/10 01:06:05;;;;;;;6.78;3.55;;;;;;;4.10;67.14;100989.08;1749349;82;21198;-80
2021/05/10 01:09:10;;;;;;;5.72;3.00;;;;;;;4.06;67.43;100998.41;1749244;82;21226;-80
2021/05/10 01:12:16;;;;;;;5.28;3.08;;;;;;;4.02;67.63;101001.84;1749442;82;21274;-80
2021/05/10 01:15:24;;;;;;;4.33;3.30;;;;;;;3.98;67.88;100994.92;1749296;82;21171;-80
2021/05/10 01:18:28;;;;;;;5.97;3.17;;;;;;;3.96;68.04;100994.69;1748658;82;21744;-80
2021/05/10 01:21:33;;;;;;;7.50;3.27;;;;;;;3.93;68.26;101003.89;1749295;82;21166;-80
2021/05/10 01:24:38;;;;;;;5.92;3.62;;;;;;;3.92;68.44;100999.95;1749204;82;21242;-80
2021/05/10 01:27:44;;;;;;;5.65;3.27;;;;;;;3.91;68.56;100998.23;1749014;82;21341;-80
2021/05/10 01:30:51;;;;;;;4.95;3.10;;;;;;;3.89;68.60;101004.23;1749286;82;21151;-79
2021/05/10 01:33:56;;;;;;;5.22;3.30;;;;;;;3.88;68.66;101006.58;1749337;82;21313;-80
2021/05/10 01:37:03;;;;;;;5.28;3.27;;;;;;;3.84;68.76;101006.80;1749248;82;21146;-80
2021/05/10 01:40:09;;;;;;;6.42;3.52;;;;;;;3.82;68.83;101003.86;1749184;82;21190;-80
2021/05/10 01:43:15;;;;;;;5.12;3.30;;;;;;;3.79;68.87;101009.48;1745199;80;21306;-80
2021/05/10 01:46:22;;;;;;;7.03;3.80;;;;;;;3.76;68.90;101012.41;1741323;82;21282;-79
2021/05/10 01:49:30;;;;;;;5.03;3.12;;;;;;;3.73;69.04;101018.94;1741366;82;21286;-80
2021/05/10 01:52:37;;;;;;;7.25;3.52;;;;;;;3.70;69.26;101018.30;1739751;82;21230;-80
2021/05/10 01:55:42;;;;;;;10.60;3.90;;;;;;;3.67;69.45;101018.05;1741367;82;21324;-80
2021/05/10 01:58:48;;;;;;;4.72;3.25;;;;;;;3.65;69.60;101018.64;1741332;82;21295;-80
2021/05/10 02:01:54;;;;;;;5.67;3.42;;;;;;;3.61;69.76;101014.92;1741383;82;21282;-80
2021/05/10 02:05:20;;;;;;;6.10;3.83;;;;;;;3.59;69.86;101024.03;1741365;82;21693;-80
2021/05/10 02:08:28;;;;;;;8.40;3.50;;;;;;;3.58;69.95;101028.20;1741345;82;21911;-80
2021/05/10 02:11:35;;;;;;;6.70;4.00;;;;;;;3.55;70.31;101031.98;1741341;82;21922;-80
2021/05/10 02:14:40;;;;;;;5.78;3.87;;;;;;;3.53;70.65;101029.04;1741323;82;21270;-80
2021/05/10 02:17:46;;;;;;;8.10;4.10;;;;;;;3.51;70.82;101032.33;1741358;82;21293;-80
2021/05/10 02:20:52;;;;;;;7.80;4.00;;;;;;;3.51;70.85;101029.63;1741408;82;21144;-80
2021/05/10 02:23:58;;;;;;;10.58;3.58;;;;;;;3.54;70.86;101030.77;1741380;82;21198;-80
2021/05/10 02:27:03;;;;;;;6.17;3.58;;;;;;;3.69;70.87;101032.31;1741150;82;21167;-80
2021/05/10 02:30:10;;;;;;;7.95;4.08;;;;;;;3.98;70.45;101038.73;1741374;82;21144;-80
2021/05/10 02:33:17;;;;;;;6.87;4.17;;;;;;;4.32;69.58;101040.58;1741306;82;21313;-80
2021/05/10 02:36:22;;;;;;;8.80;4.03;;;;;;;4.66;68.52;101037.97;1741372;82;21337;-80
2021/05/10 02:39:27;;;;;;;7.87;3.90;;;;;;;5.01;67.39;101047.36;1741405;82;21651;-80
2021/05/10 02:42:32;;;;;;;7.42;3.42;;;;;;;5.37;66.20;101047.61;1741116;82;21179;-80
2021/05/10 02:45:38;;;;;;;4.90;3.42;;;;;;;5.71;65.14;101052.97;1754381;82;21273;-80
2021/05/10 02:48:44;;;;;;;7.33;3.85;;;;;;;6.03;64.13;101057.61;1754321;82;21747;-80
2021/05/10 02:51:49;;;;;;;6.62;3.37;;;;;;;6.32;63.26;101051.92;1754312;82;21282;-80
2021/05/10 02:54:56;;;;;;;6.15;3.12;;;;;;;6.57;62.28;101053.39;1754344;82;21159;-80
2021/05/10 02:58:01;;;;;;;5.80;3.52;;;;;;;6.73;61.64;101051.58;1754397;82;21823;-80
2021/05/10 03:01:06;;;;;;;6.00;3.87;;;;;;;6.85;61.41;101049.12;1754303;82;21278;-80
2021/05/10 03:04:13;;;;;;;6.65;4.40;;;;;;;7.05;61.13;101058.75;1754302;82;21850;-80
2021/05/10 03:07:19;;;;;;;6.50;4.03;;;;;;;7.23;60.73;101050.83;1754314;82;21329;-80
2021/05/10 03:10:28;;;;;;;7.55;3.60;;;;;;;7.47;60.30;101055.42;1754340;82;21803;-80
2021/05/10 03:13:34;;;;;;;5.80;3.80;;;;;;;7.73;59.77;101059.88;1754017;81;21198;-81
2021/05/10 03:16:39;;;;;;;9.88;4.28;;;;;;;8.06;59.24;101065.96;1739707;82;21166;-80
2021/05/10 03:19:44;;;;;;;7.25;4.53;;;;;;;8.29;58.48;101068.78;1754306;82;21736;-80
2021/05/10 03:22:52;;;;;;;9.03;4.55;;;;;;;8.43;58.14;101068.88;1754234;82;21300;-81
2021/05/10 03:25:58;;;;;;;6.40;4.20;;;;;;;8.51;57.66;101069.50;1754388;82;21300;-80
2021/05/10 03:29:02;;;;;;;7.83;3.72;;;;;;;8.53;57.47;101079.78;1754286;82;21194;-81
2021/05/10 03:32:08;;;;;;;8.78;4.62;;;;;;;8.53;57.82;101075.69;1754323;82;21299;-80
2021/05/10 03:35:16;;;;;;;12.55;6.37;;;;;;;8.58;58.10;101081.57;1754270;82;21210;-80
2021/05/10 03:38:21;;;;;;;12.20;6.20;;;;;;;8.68;57.97;101081.05;1754321;82;21321;-81
2021/05/10 03:41:26;;;;;;;14.20;7.15;;;;;;;8.78;57.74;101081.89;1754270;82;21830;-81
2021/05/10 03:44:30;;;;;;;31.10;8.90;;;;;;;8.88;57.89;101084.09;1752525;80;21309;-80
2021/05/10 03:47:42;;;;;;;22.50;11.03;;;;;;;8.99;57.72;101084.93;1741359;82;21293;-80
2021/05/10 03:50:47;;;;;;;26.00;11.40;;;;;;;9.08;57.45;101086.30;1741275;82;21289;-80
2021/05/10 03:53:53;;;;;;;27.20;12.30;;;;;;;9.09;57.00;101085.80;1741303;82;21198;-81
2021/05/10 03:56:59;;;;;;;26.37;13.43;;;;;;;9.11;55.94;101088.72;1741313;82;21226;-81
2021/05/10 04:00:06;;;;;;;27.77;12.85;;;;;;;9.15;55.01;101088.78;1741322;82;21297;-81
2021/05/10 04:03:15;;;;;;;35.65;12.37;;;;;;;9.17;55.08;101092.72;1741245;82;21199;-81
2021/05/10 04:10:05;;;;;;;30.82;13.43;;;;;;;9.28;55.68;101099.38;1741315;82;21163;-81
2021/05/10 04:16:17;;;;;;;26.15;12.43;;;;;;;9.48;54.24;101100.16;1741331;82;21300;-81
2021/05/10 04:19:24;;;;;;;23.25;9.33;;;;;;;9.57;53.44;101097.03;1741223;82;21910;-81
2021/05/10 04:22:29;;;;;;;20.12;9.23;;;;;;;9.69;52.18;101099.91;1741340;82;21357;-81
2021/05/10 04:25:35;;;;;;;32.33;10.50;;;;;;;9.81;51.65;101094.61;1741212;82;21326;-81
2021/05/10 04:28:41;;;;;;;20.88;10.30;;;;;;;9.95;51.72;101102.29;1741305;82;21274;-81
2021/05/10 04:31:48;;;;;;;24.87;10.18;;;;;;;10.05;51.97;101102.73;1739703;82;21705;-81
2021/05/10 04:34:54;;;;;;;29.72;10.10;;;;;;;10.13;51.12;101098.73;1741293;82;21808;-81
2021/05/10 04:37:59;;;;;;;26.35;10.82;;;;;;;10.20;50.88;101099.82;1741279;82;21330;-81
2021/05/10 04:41:04;;;;;;;23.57;9.55;;;;;;;10.31;50.67;101099.65;1741269;82;21847;-81
2021/05/10 04:44:10;;;;;;;19.10;8.40;;;;;;;10.41;50.76;101099.06;1741087;82;21289;-81
2021/05/10 04:47:17;;;;;;;15.35;7.12;;;;;;;10.49;49.32;101100.52;1747463;80;21301;-81
2021/05/10 04:50:22;;;;;;;23.57;8.13;;;;;;;10.62;49.04;101095.13;1749150;82;21155;-80
2021/05/10 04:53:28;;;;;;;20.62;8.05;;;;;;;10.82;48.82;101093.96;1749174;82;21301;-81
2021/05/10 04:56:33;;;;;;;18.55;8.33;;;;;;;11.02;48.64;101095.98;1749208;82;21275;-81
2021/05/10 04:59:38;;;;;;;18.23;9.40;;;;;;;11.10;47.41;101100.64;1749020;82;21230;-81
2021/05/10 05:02:45;;;;;;;13.40;7.12;;;;;;;11.17;46.67;101098.98;1749254;82;21202;-81
2021/05/10 05:05:53;;;;;;;7.83;4.97;;;;;;;11.29;45.94;101097.67;1747596;81;21214;-81
2021/05/10 05:08:58;;;;;;;14.98;5.03;;;;;;;11.41;44.13;101093.66;1749190;82;21820;-81
2021/05/10 05:12:03;;;;;;;9.38;4.53;;;;;;;11.54;42.21;101091.84;1749177;82;21282;-81
2021/05/10 05:15:08;;;;;;;13.58;4.67;;;;;;;11.62;42.46;101085.53;1749171;82;21847;-81
2021/05/10 05:18:14;;;;;;;10.93;5.80;;;;;;;11.70;43.18;101087.80;1749161;82;21202;-81
2021/05/10 05:21:20;;;;;;;10.68;5.40;;;;;;;11.79;43.22;101087.33;1749208;82;21309;-81
2021/05/10 05:24:25;;;;;;;14.33;5.28;;;;;;;11.85;42.25;101087.20;1749208;82;21178;-81
2021/05/10 05:27:32;;;;;;;13.50;5.60;;;;;;;11.92;40.35;101088.27;1749278;82;21309;-81
2021/05/10 05:30:38;;;;;;;17.35;5.37;;;;;;;11.97;41.48;101092.22;1749340;82;21718;-81
2021/05/10 05:33:43;;;;;;;17.75;6.60;;;;;;;12.05;42.72;101089.17;1749307;82;21198;-81
2021/05/10 05:36:48;;;;;;;13.98;6.83;;;;;;;12.17;42.91;101082.33;1749331;82;21700;-81
2021/05/10 05:39:54;;;;;;;19.15;5.95;;;;;;;12.27;43.33;101083.03;1749272;82;21282;-81
2021/05/10 05:42:59;;;;;;;11.80;5.37;;;;;;;12.30;41.84;101085.97;1748804;82;21317;-81
2021/05/10 05:46:11;;;;;;;14.45;6.15;;;;;;;12.31;41.15;101091.27;1749297;82;21279;-81
2021/05/10 05:49:14;;;;;;;10.20;5.17;;;;;;;12.36;41.18;101088.03;1749376;82;21202;-81
2021/05/10 05:52:19;;;;;;;9.60;4.00;;;;;;;12.40;40.17;101083.92;1749263;82;21155;-81
2021/05/10 05:55:26;;;;;;;14.87;4.72;;;;;;;12.43;39.94;101087.19;1734880;82;21277;-81
2021/05/10 05:58:31;;;;;;;11.55;5.22;;;;;;;12.51;39.71;101087.69;1749225;82;21174;-81
2021/05/10 06:01:37;;;;;;;6.92;4.08;;;;;;;12.57;39.69;101081.55;1749389;82;21883;-81
2021/05/10 06:04:41;;;;;;;10.38;4.62;;;;;;;12.59;38.64;101078.63;1749312;82;21273;-82
2021/05/10 06:07:51;;;;;;;13.20;4.92;;;;;;;12.66;38.41;101077.78;1748671;82;21787;-81
2021/05/10 06:10:58;;;;;;;10.05;3.00;;;;;;;12.71;37.86;101072.62;1749452;82;21167;-81
2021/05/10 06:14:04;;;;;;;12.68;4.78;;;;;;;12.78;33.35;101078.27;1749146;82;21273;-82
2021/05/10 06:17:10;;;;;;;13.65;6.35;;;;;;;12.83;36.60;101062.66;1749241;82;21159;-82
2021/05/10 06:20:17;;;;;;;3.90;2.20;;;;;;;12.88;37.56;101059.73;1749303;82;21285;-82
2021/05/10 06:23:22;;;;;;;7.30;2.95;;;;;;;12.91;31.88;101066.27;1748589;82;21206;-81
2021/05/10 06:26:27;;;;;;;7.67;3.83;;;;;;;12.96;33.03;101055.61;1749248;82;21210;-81
2021/05/10 06:29:33;;;;;;;6.08;3.80;;;;;;;13.02;32.44;101060.40;1749255;82;21709;-81
2021/05/10 06:32:40;;;;;;;9.63;4.58;;;;;;;13.09;33.37;101044.62;1748996;82;21207;-82
2021/05/10 06:35:46;;;;;;;10.35;5.50;;;;;;;13.11;32.75;101057.64;1749256;82;21163;-81
2021/05/10 06:38:52;;;;;;;11.73;7.10;;;;;;;13.15;34.01;101031.55;1749217;82;21301;-81
2021/05/10 06:41:58;;;;;;;12.00;5.75;;;;;;;13.23;34.08;101031.57;1749153;82;21831;-82
2021/05/10 06:45:03;;;;;;;20.52;6.28;;;;;;;13.30;35.72;101043.55;1749198;82;21300;-81
2021/05/10 06:48:09;;;;;;;10.72;5.45;;;;;;;13.42;33.86;101030.30;1747133;80;21202;-81
2021/05/10 06:51:14;;;;;;;14.65;5.60;;;;;;;13.52;33.96;101023.55;1741442;82;21840;-81
2021/05/10 06:54:19;;;;;;;7.95;4.95;;;;;;;13.60;33.48;101021.79;1741386;82;21198;-81
2021/05/10 06:57:26;;;;;;;12.28;4.90;;;;;;;13.55;33.81;101026.48;1741327;82;21333;-81
2021/05/10 07:00:31;;;;;;;11.18;2.33;;;;;;;13.54;34.35;101018.72;1741417;82;21349;-82
2021/05/10 07:03:37;;;;;;;4.42;2.65;;;;;;;13.57;31.64;101027.66;1740500;82;21713;-81
2021/05/10 07:06:42;;;;;;;7.17;2.52;;;;;;;13.63;31.73;101018.69;1741296;82;21230;-81
2021/05/10 07:09:50;;;;;;;5.92;3.33;;;;;;;13.68;30.71;101008.86;1741368;82;21211;-81
2021/05/10 07:12:55;;;;;;;3.75;2.10;;;;;;;13.73;32.26;101023.45;1741010;82;21222;-81
2021/05/10 07:16:01;;;;;;;1.95;1.70;;;;;;;13.79;31.19;101018.62;1741207;82;21669;-81
2021/05/10 07:19:05;;;;;;;2.05;1.50;;;;;;;13.92;30.16;101024.37;1741421;82;21317;-81
2021/05/10 07:22:12;;;;;;;5.05;1.60;;;;;;;13.95;30.30;101011.64;1741330;82;21147;-81
2021/05/10 07:25:18;;;;;;;4.00;1.50;;;;;;;13.98;30.71;100994.79;1741331;82;21164;-81
2021/05/10 07:28:25;;;;;;;2.62;1.90;;;;;;;14.04;30.78;101006.43;1741333;82;21199;-81
2021/05/10 07:31:31;;;;;;;1.87;1.30;;;;;;;14.03;29.45;100995.09;1741139;82;21201;-81
2021/05/10 07:34:36;;;;;;;2.47;1.32;;;;;;;14.01;30.49;100998.53;1741348;82;21273;-81
2021/05/10 07:37:41;;;;;;;9.00;2.05;;;;;;;14.06;30.33;100986.45;1741334;82;21290;-81
2021/05/10 07:40:46;;;;;;;4.12;1.80;;;;;;;14.12;30.44;100995.05;1741375;82;21281;-81
2021/05/10 07:43:53;;;;;;;3.67;1.80;;;;;;;14.14;31.65;100994.33;1741283;82;21226;-81
2021/05/10 07:46:59;;;;;;;2.35;1.60;;;;;;;14.15;30.77;100993.28;1741129;82;21191;-81
2021/05/10 07:50:07;;;;;;;3.50;1.50;;;;;;;14.16;30.87;101014.25;1741144;80;21301;-81
2021/05/10 07:53:13;;;;;;;2.60;1.70;;;;;;;14.11;30.30;100984.53;1741349;82;21222;-81
2021/05/10 07:56:20;;;;;;;5.83;1.75;;;;;;;14.14;33.07;100997.94;1741452;82;21840;-81
2021/05/10 07:59:25;;;;;;;2.35;1.75;;;;;;;14.16;31.14;100992.23;1741296;82;21310;-81
2021/05/10 08:02:32;;;;;;;2.10;1.37;;;;;;;14.13;30.14;100991.25;1741286;82;21293;-81
2021/05/10 08:05:38;;;;;;;5.40;2.10;;;;;;;14.11;30.71;100967.17;1741331;82;21285;-81
2021/05/10 08:08:44;;;;;;;2.47;1.82;;;;;;;14.17;30.28;100967.84;1741308;82;21325;-81
2021/05/10 08:11:49;;;;;;;6.40;1.95;;;;;;;14.13;30.49;100970.62;1739752;81;21717;-81
2021/05/10 08:14:55;;;;;;;2.10;1.50;;;;;;;14.21;30.81;100970.53;1741238;82;21277;-81
2021/05/10 08:18:00;;;;;;;3.33;1.98;;;;;;;14.28;32.02;100963.27;1741229;82;21816;-81
2021/05/10 08:21:07;;;;;;;2.83;1.80;;;;;;;14.38;31.53;100955.61;1741277;82;21281;-81
2021/05/10 08:24:12;;;;;;;3.15;1.77;;;;;;;14.48;29.85;100946.59;1741246;82;21298;-81
2021/05/10 08:27:18;;;;;;;3.55;1.92;;;;;;;14.53;30.10;100948.27;1741226;82;21689;-81
2021/05/10 08:30:24;;;;;;;4.25;2.30;;;;;;;14.50;29.62;100945.91;1741282;82;21222;-81
2021/05/10 08:33:30;;;;;;;4.30;1.85;;;;;;;14.45;29.83;100934.57;1741273;82;21226;-81
2021/05/10 08:36:36;;;;;;;2.80;1.92;;;;;;;14.52;30.61;100921.78;1739809;82;21215;-81
2021/05/10 08:39:42;;;;;;;5.33;1.62;;;;;;;14.57;30.93;100939.13;1741338;82;21333;-81
2021/05/10 08:42:47;;;;;;;4.08;2.08;;;;;;;14.65;31.13;100932.16;1741258;82;21313;-81
2021/05/10 08:45:56;;;;;;;3.98;1.90;;;;;;;14.74;32.37;100952.21;1714828;82;21780;-82
2021/05/10 08:49:01;;;;;;;;;;;;;;;14.77;30.54;100940.80;1743826;82;21872;-81
2021/05/10 08:52:07;;;;;;;8.93;2.50;;;;;;;14.75;29.85;100934.64;1741275;82;20251;-81
2021/05/10 08:55:15;;;;;;;3.33;1.90;;;;;;;14.69;29.80;100917.51;1741297;82;21266;-81
2021/05/10 08:58:20;;;;;;;8.03;2.20;;;;;;;14.66;30.60;100924.75;1741334;82;21182;-81
2021/05/10 09:01:27;;;;;;;6.80;1.90;;;;;;;14.67;29.26;100925.08;1741445;82;21595;-81
2021/05/10 09:04:40;;;;;;;8.13;2.27;;;;;;;14.70;30.40;100909.58;1741385;82;21843;-81
2021/05/10 09:07:46;;;;;;;6.10;2.40;;;;;;;14.80;29.96;100918.41;1741423;82;21309;-81
2021/05/10 09:11:13;;;;;;;7.55;2.98;;;;;;;14.84;29.98;100908.72;1741418;82;21266;-81
2021/05/10 09:14:18;;;;;;;9.65;3.45;;;;;;;14.79;31.53;100901.03;1741373;82;21824;-81
2021/05/10 09:17:27;;;;;;;8.63;2.90;;;;;;;14.68;31.61;100902.89;1741359;82;21195;-81
2021/05/10 09:20:42;;;;;;;5.15;2.45;;;;;;;14.65;31.80;100894.14;1741402;82;21277;-81
2021/05/10 09:23:47;;;;;;;7.80;2.92;;;;;;;14.70;32.10;100896.66;1741349;82;21769;-80
2021/05/10 09:26:53;;;;;;;10.98;2.77;;;;;;;14.75;32.45;100901.07;1741352;82;21269;-80
2021/05/10 09:30:20;;;;;;;4.87;2.50;;;;;;;14.62;31.76;100912.41;1741254;82;21338;-81
2021/05/10 09:33:32;;;;;;;7.85;2.25;;;;;;;14.52;30.84;100886.53;1741324;82;21816;-81
2021/05/10 09:36:48;;;;;;;3.87;2.12;;;;;;;14.55;30.75;100887.54;1741443;82;21155;-81
2021/05/10 09:39:53;;;;;;;1.80;1.52;;;;;;;14.67;31.28;100879.66;1739827;82;21167;-81
2021/05/10 09:43:00;;;;;;;5.47;2.25;;;;;;;14.75;30.97;100880.42;1741335;82;21357;-81
2021/05/10 09:46:07;;;;;;;6.40;2.12;;;;;;;14.75;32.00;100885.92;1741375;82;21218;-81
2021/05/10 09:49:14;;;;;;;8.68;3.00;;;;;;;14.75;31.08;100882.32;1740978;82;21320;-81
2021/05/10 09:52:33;;;;;;;5.17;2.75;;;;;;;14.76;30.66;100873.01;1741273;80;21187;-81
2021/05/10 09:55:56;;;;;;;;;;;;;;;14.92;32.39;100871.98;1742468;82;21175;-80
2021/05/10 09:59:08;;;;;;;7.85;2.80;;;;;;;15.11;32.07;100866.41;1741376;82;20259;-81
2021/05/10 10:02:19;;;;;;;7.33;2.80;;;;;;;15.21;30.31;100842.15;1741332;82;21282;-81
2021/05/10 10:05:23;;;;;;;5.60;2.22;;;;;;;15.22;30.43;100868.65;1733585;82;21302;-81
2021/05/10 10:08:29;;;;;;;6.83;2.70;;;;;;;15.23;29.56;100860.70;1741326;82;21368;-80
2021/05/10 10:11:35;;;;;;;4.37;2.52;;;;;;;15.23;30.50;100844.17;1741367;82;21155;-80
2021/05/10 10:14:40;;;;;;;8.95;2.58;;;;;;;15.29;31.00;100836.00;1741320;82;21277;-81
2021/05/10 10:17:47;;;;;;;3.80;2.60;;;;;;;15.32;30.88;100823.72;1715246;82;21317;-81
2021/05/10 10:20:54;;;;;;;8.55;2.67;;;;;;;15.31;29.86;100819.27;1741378;82;21356;-81
2021/05/10 10:24:09;;;;;;;4.50;2.20;;;;;;;15.25;30.12;100814.53;1741329;82;21222;-80
2021/05/10 10:27:15;;;;;;;4.37;2.05;;;;;;;15.23;31.31;100803.69;1741005;82;21804;-81
2021/05/10 10:30:23;;;;;;;4.37;2.10;;;;;;;15.28;29.80;100833.41;1741260;82;21168;-80
2021/05/10 10:33:36;;;;;;;4.65;2.12;;;;;;;15.29;28.48;100810.31;1741230;82;21285;-81
2021/05/10 10:36:57;;;;;;;5.83;2.25;;;;;;;15.32;29.98;100805.27;1741365;82;21297;-81
2021/05/10 10:40:02;;;;;;;4.92;2.33;;;;;;;15.37;29.88;100793.66;1741335;82;21823;-81
2021/05/10 10:43:31;;;;;;;6.78;2.90;;;;;;;15.35;29.75;100786.13;1741431;82;21297;-81
2021/05/10 10:46:37;;;;;;;5.12;3.10;;;;;;;15.39;30.28;100768.16;1741408;82;21954;-81
2021/05/10 10:49:48;;;;;;;9.08;3.12;;;;;;;15.42;30.54;100776.01;1741146;82;21301;-81
2021/05/10 10:53:02;;;;;;;5.97;3.08;;;;;;;15.42;30.51;100766.36;1745454;80;21769;-81
2021/05/10 10:56:07;;;;;;;6.92;2.58;;;;;;;15.44;31.19;100763.43;1749279;82;21282;-81
2021/05/10 10:59:36;;;;;;;8.15;2.17;;;;;;;15.47;28.98;100756.97;1749247;82;21187;-81
2021/05/10 11:02:56;;;;;;;3.47;2.37;;;;;;;15.43;30.29;100774.98;1749247;82;21317;-81
2021/05/10 11:06:02;;;;;;;6.78;2.08;;;;;;;15.28;29.37;100753.50;1749364;82;21189;-81
2021/05/10 11:09:08;;;;;;;7.67;2.05;;;;;;;15.26;29.53;100734.94;1749210;82;21194;-81
2021/05/10 11:12:13;;;;;;;4.55;2.08;;;;;;;15.29;29.68;100725.77;1749254;82;21760;-81
2021/05/10 11:15:41;;;;;;;9.18;2.37;;;;;;;15.34;32.30;100719.66;1747761;82;21166;-80
2021/05/10 11:19:04;;;;;;;15.38;2.30;;;;;;;15.38;30.36;100722.32;1749108;82;21859;-80
2021/05/10 11:22:12;;;;;;;6.55;2.10;;;;;;;15.39;29.37;100724.05;1749177;82;21162;-81
2021/05/10 11:25:45;;;;;;;6.33;2.30;;;;;;;15.38;30.05;100720.09;1749352;82;21155;-80
2021/05/10 11:28:52;;;;;;;5.50;2.47;;;;;;;15.40;31.30;100718.86;1675794;85;21334;-80
2021/05/10 11:31:57;;;;;;;8.33;2.65;;;;;;;15.49;30.17;100725.94;1749233;82;21627;-80
2021/05/10 11:35:02;;;;;;;6.33;2.25;;;;;;;15.49;29.18;100720.42;1749176;82;21788;-80
2021/05/10 11:38:09;;;;;;;9.03;2.30;;;;;;;15.46;30.20;100719.44;1749216;82;21864;-80
2021/05/10 11:41:14;;;;;;;3.72;2.50;;;;;;;15.48;29.01;100713.22;1749289;82;21796;-80
2021/05/10 11:44:29;;;;;;;6.60;2.47;;;;;;;15.47;31.00;100711.48;1749138;82;21329;-80
2021/05/10 11:47:36;;;;;;;7.30;2.20;;;;;;;15.57;30.96;100694.10;1749028;82;21284;-80
2021/05/10 11:50:50;;;;;;;6.47;2.47;;;;;;;15.70;29.66;100708.53;1749073;82;21824;-80
2021/05/10 11:54:16;;;;;;;7.05;2.70;;;;;;;15.79;30.50;100696.83;1749198;80;21277;-80
2021/05/10 11:57:29;;;;;;;4.92;2.37;;;;;;;15.83;29.17;100709.17;1749256;82;21210;-80
2021/05/10 12:00:35;;;;;;;4.45;2.00;;;;;;;15.80;28.58;100696.62;1749246;82;21309;-80
2021/05/10 12:03:42;;;;;;;5.58;2.25;;;;;;;15.70;28.72;100705.77;1749217;82;21194;-80
2021/05/10 12:06:50;;;;;;;6.62;2.80;;;;;;;15.58;28.71;100682.02;1749013;82;21341;-80
2021/05/10 12:10:05;;;;;;;10.48;2.35;;;;;;;15.57;29.02;100691.34;1749358;82;21154;-80
2021/05/10 12:13:11;;;;;;;5.70;1.87;;;;;;;15.60;29.45;100677.14;1749189;82;21194;-80
2021/05/10 12:16:16;;;;;;;3.67;1.85;;;;;;;15.63;29.00;100681.41;1749309;82;21747;-80
2021/05/10 12:19:21;;;;;;;8.33;2.05;;;;;;;15.74;29.00;100669.85;1749224;82;21775;-80
2021/05/10 12:22:33;;;;;;;7.35;2.70;;;;;;;15.80;28.63;100675.08;1749299;82;21173;-80
2021/05/10 12:25:41;;;;;;;4.70;2.20;;;;;;;15.78;28.06;100684.09;1749219;82;21150;-80
2021/05/10 12:28:46;;;;;;;5.40;2.35;;;;;;;15.72;29.10;100671.97;1748269;82;21890;-80
2021/05/10 12:31:51;;;;;;;6.05;3.42;;;;;;;15.75;29.10;100664.66;1749217;82;21278;-80
2021/05/10 12:34:57;;;;;;;10.90;2.85;;;;;;;15.82;29.39;100674.37;1749268;82;21342;-80
2021/05/10 12:38:03;;;;;;;4.95;2.15;;;;;;;15.87;27.86;100655.30;1748769;82;21309;-80
2021/05/10 12:41:09;;;;;;;4.95;1.98;;;;;;;15.87;28.11;100656.69;1739812;82;21155;-80
2021/05/10 12:44:21;;;;;;;5.40;2.30;;;;;;;15.89;29.03;100651.80;1745188;82;21297;-79
2021/05/10 12:47:56;;;;;;;12.10;2.90;;;;;;;15.88;28.64;100655.62;1739842;82;21811;-81
2021/05/10 12:51:05;;;;;;;9.50;5.10;;;;;;;15.88;29.42;100652.02;1749150;81;21222;-81
2021/05/10 12:54:14;;;;;;;85.45;39.48;;;;;;;15.90;29.46;100657.64;1751181;80;21387;-81
2021/05/10 12:57:20;;;;;;;4.70;2.42;;;;;;;15.91;28.25;100639.21;1772138;80;21834;-79
2021/05/10 13:00:43;;;;;;;5.45;2.62;;;;;;;15.90;29.13;100631.44;1758752;81;21297;-81
2021/05/10 13:03:49;;;;;;;3.60;2.37;;;;;;;15.93;28.19;100635.17;1771545;80;21320;-81
2021/05/10 13:07:01;;;;;;;3.87;2.37;;;;;;;15.95;28.35;100623.43;1771181;80;21296;-81
2021/05/10 13:10:14;;;;;;;9.35;3.27;;;;;;;15.86;28.77;100629.31;1771163;81;21158;-81
2021/05/10 13:13:19;;;;;;;5.87;2.58;;;;;;;15.72;28.39;100642.17;1771160;81;21311;-81
2021/05/10 13:16:40;;;;;;;7.58;2.58;;;;;;;15.68;28.32;100609.16;1771140;81;21283;-81
2021/05/10 13:27:06;;;;;;;6.15;2.33;;;;;;;15.65;29.00;100613.16;1771165;80;21277;-81
2021/05/10 13:32:47;;;;;;;2.92;2.10;;;;;;;15.84;27.98;100597.78;1771720;81;21296;-81
2021/05/10 13:35:57;;;;;;;5.67;2.05;;;;;;;15.81;28.20;100605.10;1771769;80;21295;-81
2021/05/10 13:39:00;;;;;;;8.88;2.72;;;;;;;15.77;29.10;100585.87;1771901;81;21288;-81
2021/05/10 13:42:11;;;;;;;7.97;2.27;;;;;;;15.79;28.90;100586.51;1771853;81;21142;-81
2021/05/10 13:45:16;;;;;;;7.22;2.42;;;;;;;15.82;28.26;100576.45;1771964;81;21280;-81
2021/05/10 13:48:23;;;;;;;14.35;4.30;;;;;;;15.83;29.35;100574.86;1771849;81;21315;-81
2021/05/10 13:51:28;;;;;;;14.13;5.05;;;;;;;15.88;28.67;100565.98;1771875;80;21200;-81
2021/05/10 13:54:34;;;;;;;3.83;2.27;;;;;;;15.96;28.52;100565.81;1771989;81;21193;-81
2021/05/10 13:57:38;;;;;;;9.93;2.50;;;;;;;16.04;27.86;100562.89;1785315;80;21315;-81
2021/05/10 14:00:44;;;;;;;3.30;1.75;;;;;;;16.04;27.76;100553.23;1785382;80;21140;-81
2021/05/10 14:03:49;;;;;;;6.42;1.95;;;;;;;16.03;28.75;100561.69;1785327;80;21295;-81
2021/05/10 14:06:56;;;;;;;8.30;2.33;;;;;;;16.03;28.23;100550.13;1783921;79;21161;-81
2021/05/10 14:10:01;;;;;;;7.03;2.80;;;;;;;16.03;27.65;100536.86;1785321;80;21296;-81
2021/05/10 14:13:06;;;;;;;6.80;2.42;;;;;;;16.02;27.16;100551.19;1785315;80;21737;-81
2021/05/10 14:16:13;;;;;;;8.28;3.42;;;;;;;16.02;28.63;100531.87;1785368;80;21259;-81
2021/05/10 14:19:23;;;;;;;13.85;3.50;;;;;;;16.06;28.86;100543.36;1785276;80;21331;-81
2021/05/10 14:22:25;;;;;;;5.80;2.85;;;;;;;16.09;28.79;100534.14;1785337;79;21271;-81
2021/05/10 14:25:25;;;;;;;8.43;2.60;;;;;;;16.14;28.19;100534.91;1785641;80;21272;-81
2021/05/10 14:28:31;;;;;;;5.90;2.30;;;;;;;16.18;27.79;100535.31;1784698;80;21292;-82
2021/05/10 14:31:39;;;;;;;7.60;2.65;;;;;;;16.17;27.41;100540.52;1785371;80;21709;-81
2021/05/10 14:34:46;;;;;;;11.25;2.10;;;;;;;16.19;27.92;100521.33;1783819;80;21283;-81
2021/05/10 14:37:52;;;;;;;5.00;2.42;;;;;;;16.21;27.47;100528.86;1784788;79;21165;-81
2021/05/10 14:41:03;;;;;;;5.25;1.92;;;;;;;16.20;27.68;100510.61;1785470;80;21761;-82
2021/05/10 14:44:07;;;;;;;7.37;2.13;;;;;;;16.20;28.20;100509.76;1785711;80;21316;-81
2021/05/10 14:47:13;;;;;;;9.65;2.25;;;;;;;16.19;28.12;100506.16;1785408;80;21303;-82
2021/05/10 14:50:20;;;;;;;5.10;2.75;;;;;;;16.18;27.75;100507.19;1784049;80;21241;-82